createdAt,value
2023-02-24T00:00:19.623Z,8.16
2023-02-24T00:02:21.566Z,8.11
2023-02-24T00:04:27.103Z,8.04
2023-02-24T00:06:33.280Z,8.04
2023-02-24T00:08:35.352Z,7.97
2023-02-24T00:10:37.789Z,7.98
2023-02-24T00:12:39.751Z,7.93
2023-02-24T00:14:45.282Z,7.95
2023-02-24T00:16:48.051Z,7.96
2023-02-24T00:18:51.174Z,7.97
2023-02-24T00:20:56.643Z,7.97
2023-02-24T00:22:58.636Z,7.97
2023-02-24T00:25:02.711Z,7.93
2023-02-24T00:27:08.182Z,7.86
2023-02-24T00:29:13.580Z,7.87
2023-02-24T00:31:18.612Z,7.82
2023-02-24T00:33:23.619Z,7.84
2023-02-24T00:35:27.988Z,7.84
2023-02-24T00:37:29.903Z,7.81
2023-02-24T00:39:34.911Z,7.82
2023-02-24T00:41:40.353Z,7.80
2023-02-24T00:43:47.050Z,7.80
2023-02-24T00:45:51.622Z,7.77
2023-02-24T00:47:56.080Z,7.76
2023-02-24T00:49:57.923Z,7.71
2023-02-24T00:52:00.398Z,7.67
2023-02-24T00:54:03.438Z,7.66
2023-02-24T00:56:07.360Z,7.67
2023-02-24T00:58:09.284Z,7.72
2023-02-24T01:00:13.644Z,7.73
2023-02-24T01:02:18.619Z,7.74
2023-02-24T01:04:21.219Z,7.69
2023-02-24T01:06:25.969Z,7.65
2023-02-24T01:08:30.804Z,7.61
2023-02-24T01:10:34.566Z,7.58
2023-02-24T01:12:39.481Z,7.52
2023-02-24T01:14:41.368Z,7.50
2023-02-24T01:16:46.638Z,7.46
2023-02-24T01:18:48.689Z,7.43
2023-02-24T01:20:53.856Z,7.41
2023-02-24T01:22:57.922Z,7.41
2023-02-24T01:24:59.832Z,7.36
2023-02-24T01:27:02.318Z,7.36
2023-02-24T01:29:04.726Z,7.32
2023-02-24T01:31:06.804Z,7.31
2023-02-24T01:33:09.068Z,7.31
2023-02-24T01:35:12.103Z,7.28
2023-02-24T01:37:16.703Z,7.31
2023-02-24T01:39:18.628Z,7.30
2023-02-24T01:41:23.920Z,7.30
2023-02-24T01:43:28.088Z,7.26
2023-02-24T01:45:29.986Z,7.24
2023-02-24T01:47:31.871Z,7.20
2023-02-24T01:49:36.981Z,7.22
2023-02-24T01:51:44.814Z,7.22
2023-02-24T01:53:47.086Z,7.18
2023-02-24T01:55:51.172Z,7.19
2023-02-24T01:57:54.325Z,7.17
2023-02-24T02:00:02.313Z,7.16
2023-02-24T02:02:08.427Z,7.15
2023-02-24T02:04:21.419Z,7.15
2023-02-24T02:06:23.994Z,7.11
2023-02-24T02:08:26.413Z,7.13
2023-02-24T02:10:29.029Z,7.12
2023-02-24T02:12:37.172Z,7.12
2023-02-24T02:14:44.149Z,7.11
2023-02-24T02:16:59.062Z,7.14
2023-02-24T02:19:07.712Z,7.08
2023-02-24T02:48:43.562Z,7.05
2023-02-24T02:50:51.980Z,7.01
2023-02-24T02:52:58.218Z,7.01
2023-02-24T02:55:09.672Z,7.03
2023-02-24T02:57:17.102Z,7.03
2023-02-24T02:59:25.064Z,7.00
2023-02-24T03:01:32.105Z,6.95
2023-02-24T03:03:43.631Z,6.93
2023-02-24T03:05:52.800Z,6.90
2023-02-24T03:07:58.223Z,6.84
2023-02-24T03:10:10.669Z,6.88
2023-02-24T03:12:17.405Z,6.84
2023-02-24T03:14:25.280Z,6.84
2023-02-24T03:16:28.317Z,6.85
2023-02-24T03:18:35.361Z,6.85
2023-02-24T03:20:43.199Z,6.84
2023-02-24T03:22:52.979Z,6.85
2023-02-24T03:24:55.441Z,6.83
2023-02-24T03:27:08.141Z,6.81
2023-02-24T03:29:18.804Z,6.74
2023-02-24T03:31:28.210Z,6.74
2023-02-24T03:33:37.077Z,6.68
2023-02-24T03:35:42.293Z,6.50
2023-02-24T03:37:45.236Z,6.33
2023-02-24T03:39:51.359Z,6.18
2023-02-24T03:41:58.845Z,6.25
2023-02-24T03:44:02.062Z,6.20
2023-02-24T03:46:05.984Z,6.19
2023-02-24T03:48:10.352Z,6.13
2023-02-24T03:50:17.266Z,6.18
2023-02-24T03:52:25.255Z,6.23
2023-02-24T03:54:31.142Z,6.24
2023-02-24T03:56:40.477Z,6.21
2023-02-24T03:58:48.696Z,6.22
2023-02-24T04:00:56.861Z,6.09
2023-02-24T04:03:09.840Z,6.12
2023-02-24T04:05:20.729Z,6.14
2023-02-24T04:07:26.458Z,6.17
2023-02-24T04:09:38.133Z,6.16
2023-02-24T04:11:47.202Z,6.17
2023-02-24T04:13:55.001Z,6.24
2023-02-24T04:16:02.640Z,6.21
2023-02-24T04:18:14.060Z,6.15
2023-02-24T04:20:20.858Z,6.13
2023-02-24T04:22:27.258Z,6.18
2023-02-24T04:24:32.298Z,6.19
2023-02-24T04:26:40.485Z,6.18
2023-02-24T04:28:44.035Z,6.21
2023-02-24T04:30:49.522Z,6.24
2023-02-24T04:32:51.429Z,6.21
2023-02-24T04:34:53.684Z,6.21
2023-02-24T04:36:55.466Z,6.21
2023-02-24T04:38:57.241Z,6.22
2023-02-24T04:40:59.121Z,6.28
2023-02-24T04:43:00.941Z,6.28
2023-02-24T04:45:09.932Z,6.20
2023-02-24T04:47:12.304Z,6.16
2023-02-24T04:49:14.195Z,6.12
2023-02-24T04:51:16.088Z,6.24
2023-02-24T04:53:27.172Z,6.18
2023-02-24T04:55:34.739Z,6.20
2023-02-24T04:57:38.616Z,6.29
2023-02-24T04:59:40.846Z,6.36
2023-02-24T05:01:44.256Z,6.33
2023-02-24T05:03:47.713Z,6.34
2023-02-24T05:05:53.123Z,6.39
2023-02-24T05:07:56.912Z,6.40
2023-02-24T05:09:58.785Z,6.33
2023-02-24T05:12:00.716Z,6.32
2023-02-24T05:14:04.679Z,6.35
2023-02-24T05:16:08.929Z,6.33
2023-02-24T05:18:14.823Z,6.11
2023-02-24T05:20:20.090Z,6.25
2023-02-24T05:22:23.025Z,5.97
2023-02-24T05:24:27.164Z,6.06
2023-02-24T05:26:32.188Z,6.01
2023-02-24T05:28:34.502Z,6.04
2023-02-24T05:30:36.843Z,5.90
2023-02-24T05:32:38.678Z,5.93
2023-02-24T05:34:40.570Z,5.93
2023-02-24T05:36:46.074Z,5.97
2023-02-24T05:38:56.563Z,5.89
2023-02-24T05:41:07.230Z,5.99
2023-02-24T05:43:15.390Z,6.06
2023-02-24T05:45:18.377Z,6.11
2023-02-24T05:47:21.398Z,6.13
2023-02-24T05:49:27.436Z,6.21
2023-02-24T05:51:35.496Z,6.29
2023-02-24T05:53:41.471Z,6.32
2023-02-24T05:55:43.799Z,6.33
2023-02-24T05:57:45.736Z,6.38
2023-02-24T05:59:51.199Z,6.23
2023-02-24T06:01:53.520Z,6.20
2023-02-24T06:03:55.388Z,6.23
2023-02-24T06:06:03.047Z,6.31
2023-02-24T06:08:05.101Z,6.28
2023-02-24T06:10:10.372Z,6.17
2023-02-24T06:12:14.782Z,6.22
2023-02-24T06:14:16.899Z,6.14
2023-02-24T06:16:20.080Z,6.17
2023-02-24T06:18:21.930Z,6.17
2023-02-24T06:20:26.858Z,6.11
2023-02-24T06:22:33.167Z,6.06
2023-02-24T06:24:35.057Z,5.96
2023-02-24T06:26:43.329Z,5.97
2023-02-24T06:28:48.114Z,6.10
2023-02-24T06:30:50.739Z,6.11
2023-02-24T06:32:54.167Z,6.10
2023-02-24T06:34:59.374Z,6.06
2023-02-24T06:37:01.501Z,6.05
2023-02-24T06:39:08.257Z,6.06
2023-02-24T06:41:11.520Z,6.00
2023-02-24T06:43:13.587Z,5.98
2023-02-24T06:45:16.703Z,6.09
2023-02-24T06:47:18.647Z,6.13
2023-02-24T06:49:20.501Z,6.10
2023-02-24T06:51:23.395Z,6.14
2023-02-24T06:53:26.708Z,6.13
2023-02-24T06:55:28.594Z,6.11
2023-02-24T06:57:34.544Z,5.97
2023-02-24T06:59:36.502Z,5.78
2023-02-24T07:01:45.267Z,5.99
2023-02-24T07:03:56.063Z,6.00
2023-02-24T07:06:01.230Z,6.00
2023-02-24T07:08:03.283Z,6.01
2023-02-24T07:10:06.012Z,5.93
2023-02-24T07:12:08.354Z,5.55
2023-02-24T07:14:13.231Z,5.84
2023-02-24T07:16:18.456Z,5.83
2023-02-24T07:18:20.490Z,5.83
2023-02-24T07:20:25.779Z,5.78
2023-02-24T07:22:27.668Z,5.93
2023-02-24T07:24:33.776Z,5.83
2023-02-24T07:26:35.866Z,5.92
2023-02-24T07:28:40.466Z,5.97
2023-02-24T07:30:45.859Z,6.05
2023-02-24T07:32:48.655Z,6.08
2023-02-24T07:34:51.384Z,6.05
2023-02-24T07:36:54.805Z,6.16
2023-02-24T07:38:59.016Z,6.05
2023-02-24T07:41:00.885Z,6.14
2023-02-24T07:43:03.454Z,6.21
2023-02-24T07:45:06.447Z,6.27
2023-02-24T07:47:08.916Z,6.28
2023-02-24T07:49:14.879Z,6.27
2023-02-24T07:51:20.176Z,6.31
2023-02-24T07:53:22.872Z,6.42
2023-02-24T07:55:25.933Z,6.45
2023-02-24T07:57:29.085Z,6.46
2023-02-24T07:59:33.536Z,6.48
2023-02-24T08:01:39.107Z,6.52
2023-02-24T08:03:42.106Z,6.40
2023-02-24T08:05:44.071Z,6.35
2023-02-24T08:07:49.385Z,6.38
2023-02-24T08:10:10.328Z,6.26
2023-02-24T08:12:18.030Z,6.49
2023-02-24T08:14:23.946Z,6.51
2023-02-24T08:16:34.551Z,6.57
2023-02-24T08:18:37.590Z,6.39
2023-02-24T08:20:52.551Z,6.43
2023-02-24T08:22:56.266Z,6.56
2023-02-24T08:25:01.028Z,6.63
2023-02-24T08:27:05.335Z,6.75
2023-02-24T08:29:07.662Z,6.74
2023-02-24T08:31:12.761Z,6.78
2023-02-24T08:33:21.002Z,6.78
2023-02-24T08:35:32.108Z,6.82
2023-02-24T08:37:39.829Z,6.70
2023-02-24T08:39:43.905Z,6.73
2023-02-24T08:41:51.644Z,6.82
2023-02-24T08:43:53.581Z,6.80
2023-02-24T08:46:01.101Z,6.78
2023-02-24T08:48:18.276Z,6.89
2023-02-24T08:50:22.007Z,6.97
2023-02-24T08:52:23.961Z,7.03
2023-02-24T08:54:29.010Z,7.14
2023-02-24T08:56:35.406Z,6.95
2023-02-24T08:58:41.272Z,7.11
2023-02-24T09:00:49.482Z,7.12
2023-02-24T09:02:56.366Z,7.11
2023-02-24T09:05:03.921Z,7.22
2023-02-24T09:07:12.390Z,7.18
2023-02-24T09:09:18.326Z,7.24
2023-02-24T09:11:23.664Z,7.34
2023-02-24T09:13:33.174Z,7.45
2023-02-24T09:15:41.594Z,7.43
2023-02-24T09:17:47.961Z,7.51
2023-02-24T09:19:51.338Z,7.57
2023-02-24T09:21:53.745Z,7.66
2023-02-24T09:23:56.357Z,7.77
2023-02-24T09:25:58.436Z,7.71
2023-02-24T09:28:09.722Z,7.55
2023-02-24T09:30:32.226Z,7.78
2023-02-24T09:32:36.961Z,7.82
2023-02-24T09:34:44.323Z,7.78
2023-02-24T09:37:01.492Z,7.84
2023-02-24T09:39:03.995Z,7.79
2023-02-24T09:41:32.226Z,7.93
2023-02-24T09:43:44.439Z,8.02
2023-02-24T09:45:53.888Z,8.11
2023-02-24T09:47:56.532Z,8.20
2023-02-24T09:50:13.603Z,8.26
2023-02-24T09:52:18.315Z,8.31
2023-02-24T09:54:24.844Z,8.31
2023-02-24T09:56:32.739Z,8.42
2023-02-24T09:58:43.989Z,8.47
2023-02-24T10:00:52.017Z,8.58
2023-02-24T10:03:19.803Z,8.66
2023-02-24T10:05:28.160Z,8.68
2023-02-24T10:07:38.668Z,8.76
2023-02-24T10:09:46.873Z,8.71
2023-02-24T10:11:54.303Z,8.76
2023-02-24T10:14:03.440Z,8.82
2023-02-24T10:16:14.447Z,8.84
2023-02-24T10:18:27.489Z,8.86
2023-02-24T10:20:39.921Z,8.86
2023-02-24T10:22:52.178Z,8.92
2023-02-24T10:25:01.598Z,8.99
2023-02-24T10:27:16.749Z,9.02
2023-02-24T10:29:22.902Z,8.99
2023-02-24T10:31:35.792Z,9.03
2023-02-24T10:33:46.646Z,9.09
2023-02-24T10:35:50.408Z,9.12
2023-02-24T10:37:53.606Z,9.20
2023-02-24T10:40:00.576Z,9.09
2023-02-24T10:42:08.620Z,9.16
2023-02-24T10:44:11.826Z,9.25
2023-02-24T10:46:26.386Z,9.29
2023-02-24T10:48:41.682Z,9.34
2023-02-24T10:50:55.209Z,9.36
2023-02-24T10:53:04.365Z,9.37
2023-02-24T10:55:17.731Z,9.40
2023-02-24T10:57:32.160Z,9.44
2023-02-24T10:59:48.556Z,9.49
2023-02-24T11:01:59.548Z,9.48
2023-02-24T11:04:01.776Z,9.45
2023-02-24T11:06:20.279Z,9.55
2023-02-24T11:08:26.090Z,9.59
2023-02-24T11:10:42.872Z,9.61
2023-02-24T11:12:55.573Z,9.74
2023-02-24T11:15:09.799Z,9.64
2023-02-24T11:17:21.133Z,9.74
2023-02-24T11:19:23.298Z,9.81
2023-02-24T11:21:27.543Z,9.86
2023-02-24T11:23:35.197Z,9.92
2023-02-24T11:25:41.018Z,10.04
2023-02-24T11:27:50.057Z,10.09
2023-02-24T11:29:58.423Z,10.16
2023-02-24T11:32:06.759Z,10.25
2023-02-24T11:34:19.277Z,10.25
2023-02-24T11:36:33.312Z,10.37
2023-02-24T11:38:43.617Z,10.47
2023-02-24T11:40:53.496Z,10.47
2023-02-24T11:43:02.135Z,10.56
2023-02-24T11:45:09.471Z,10.61
2023-02-24T11:47:19.174Z,10.66
2023-02-24T11:49:32.776Z,10.76
2023-02-24T11:51:38.126Z,10.77
2023-02-24T11:53:44.608Z,10.77
2023-02-24T11:55:51.619Z,10.80
2023-02-24T11:57:56.416Z,10.86
2023-02-24T12:00:13.287Z,10.82
2023-02-24T12:02:18.810Z,10.82
2023-02-24T12:04:28.389Z,10.81
2023-02-24T12:06:36.702Z,10.89
2023-02-24T12:08:42.003Z,10.89
2023-02-24T12:10:50.637Z,10.90
2023-02-24T12:12:58.858Z,10.92
2023-02-24T12:15:10.501Z,10.91
2023-02-24T12:17:18.953Z,10.83
2023-02-24T12:19:28.629Z,10.88
2023-02-24T12:21:36.513Z,10.86
2023-02-24T12:23:43.427Z,10.79
2023-02-24T12:25:53.654Z,10.84
2023-02-24T12:27:59.106Z,10.84
2023-02-24T12:30:07.314Z,10.85
2023-02-24T12:32:23.762Z,10.76
2023-02-24T12:34:41.330Z,10.75
2023-02-24T12:36:45.087Z,10.69
2023-02-24T12:38:50.808Z,10.70
2023-02-24T12:41:09.258Z,10.65
2023-02-24T12:43:17.579Z,10.63
2023-02-24T12:45:29.871Z,10.67
2023-02-24T12:47:32.561Z,10.66
2023-02-24T12:49:40.870Z,10.79
2023-02-24T12:51:53.344Z,10.80
2023-02-24T12:53:58.726Z,10.94
2023-02-24T12:56:02.784Z,11.00
2023-02-24T12:58:09.442Z,11.03
2023-02-24T13:00:18.378Z,11.08
2023-02-24T13:02:34.158Z,11.19
2023-02-24T13:04:42.814Z,11.22
2023-02-24T13:06:57.384Z,11.27
2023-02-24T13:09:13.697Z,11.28
2023-02-24T13:11:22.131Z,11.26
2023-02-24T13:13:31.626Z,11.28
2023-02-24T13:15:33.541Z,11.25
2023-02-24T13:17:49.056Z,11.26
2023-02-24T13:19:53.708Z,11.26
2023-02-24T13:22:03.871Z,11.27
2023-02-24T13:24:06.144Z,11.30
2023-02-24T13:26:08.915Z,11.28
2023-02-24T13:28:17.250Z,11.29
2023-02-24T13:30:26.290Z,11.32
2023-02-24T13:32:32.108Z,11.26
2023-02-24T13:34:40.414Z,11.33
2023-02-24T13:36:47.516Z,11.42
2023-02-24T13:39:05.140Z,11.47
2023-02-24T13:41:13.804Z,11.44
2023-02-24T13:43:22.163Z,11.51
2023-02-24T13:45:29.294Z,11.56
2023-02-24T13:47:37.460Z,11.58
2023-02-24T13:49:51.866Z,11.64
2023-02-24T13:51:59.530Z,11.80
2023-02-24T13:54:07.682Z,11.95
2023-02-24T13:56:16.790Z,12.06
2023-02-24T13:58:22.461Z,12.13
2023-02-24T14:00:28.308Z,12.26
2023-02-24T14:02:31.663Z,12.39
2023-02-24T14:04:36.888Z,12.35
2023-02-24T14:06:39.570Z,12.46
2023-02-24T14:08:47.753Z,12.54
2023-02-24T14:10:56.317Z,12.69
2023-02-24T14:13:06.764Z,12.81
2023-02-24T14:15:15.387Z,12.91
2023-02-24T14:17:26.428Z,13.03
2023-02-24T14:19:28.387Z,13.17
2023-02-24T14:21:33.623Z,13.31
2023-02-24T14:23:37.767Z,13.39
2023-02-24T14:25:39.985Z,13.47
2023-02-24T14:27:45.357Z,13.58
2023-02-24T14:29:49.864Z,13.70
2023-02-24T14:31:54.933Z,13.77
2023-02-24T14:34:01.938Z,13.76
2023-02-24T14:36:06.269Z,13.81
2023-02-24T14:38:28.630Z,13.79
2023-02-24T14:40:35.514Z,13.74
2023-02-24T14:42:49.919Z,13.62
2023-02-24T14:44:57.501Z,13.57
2023-02-24T14:47:08.958Z,13.55
2023-02-24T14:49:18.477Z,13.29
2023-02-24T14:51:29.252Z,13.35
2023-02-24T14:53:33.175Z,13.29
2023-02-24T14:55:37.912Z,13.25
2023-02-24T14:57:48.730Z,13.27
2023-02-24T14:59:54.567Z,13.22
2023-02-24T15:01:57.919Z,13.14
2023-02-24T15:04:11.284Z,13.13
2023-02-24T15:06:21.329Z,13.13
2023-02-24T15:08:29.662Z,13.09
2023-02-24T15:10:32.468Z,13.11
2023-02-24T15:12:43.848Z,13.14
2023-02-24T15:14:52.312Z,13.32
2023-02-24T15:17:00.522Z,13.49
2023-02-24T15:19:03.227Z,13.61
2023-02-24T15:21:07.667Z,13.76
2023-02-24T15:23:27.140Z,13.89
2023-02-24T15:25:44.328Z,14.11
2023-02-24T15:27:51.418Z,14.23
2023-02-24T15:29:57.643Z,14.40
2023-02-24T15:32:01.070Z,14.47
2023-02-24T15:34:03.836Z,14.53
2023-02-24T15:36:11.562Z,14.53
2023-02-24T15:38:23.958Z,14.54
2023-02-24T15:40:27.243Z,14.56
2023-02-24T15:42:33.986Z,14.58
2023-02-24T15:44:37.314Z,14.63
2023-02-24T15:46:39.884Z,14.63
2023-02-24T15:48:46.700Z,14.61
2023-02-24T15:50:50.482Z,14.71
2023-02-24T15:52:52.821Z,14.72
2023-02-24T15:54:58.128Z,14.70
2023-02-24T15:57:01.932Z,14.76
2023-02-24T15:59:04.192Z,14.75
2023-02-24T16:01:06.659Z,14.73
2023-02-24T16:03:09.056Z,14.60
2023-02-24T16:05:17.398Z,14.64
2023-02-24T16:07:23.291Z,14.72
2023-02-24T16:09:33.529Z,14.65
2023-02-24T16:11:40.064Z,14.53
2023-02-24T16:13:48.368Z,14.58
2023-02-24T16:15:51.190Z,14.56
2023-02-24T16:17:54.077Z,14.56
2023-02-24T16:19:59.625Z,14.43
2023-02-24T16:22:02.484Z,14.32
2023-02-24T16:24:04.538Z,14.23
2023-02-24T16:26:13.055Z,14.04
2023-02-24T16:28:17.776Z,14.06
2023-02-24T16:30:22.569Z,13.78
2023-02-24T16:32:27.184Z,13.80
2023-02-24T16:34:29.423Z,13.66
2023-02-24T16:36:31.841Z,13.63
2023-02-24T16:38:33.797Z,13.57
2023-02-24T16:40:39.113Z,13.48
2023-02-24T16:42:41.272Z,13.41
2023-02-24T16:44:43.771Z,13.22
2023-02-24T16:46:46.354Z,13.16
2023-02-24T16:48:53.555Z,12.99
2023-02-24T16:50:56.115Z,12.79
2023-02-24T16:52:58.713Z,12.73
2023-02-24T16:55:02.399Z,12.83
2023-02-24T16:57:06.278Z,12.66
2023-02-24T16:59:08.632Z,12.59
2023-02-24T17:01:17.563Z,12.50
2023-02-24T17:03:24.882Z,12.28
2023-02-24T17:05:28.972Z,12.15
2023-02-24T17:07:31.518Z,12.06
2023-02-24T17:09:34.147Z,11.91
2023-02-24T17:11:36.373Z,11.84
2023-02-24T17:13:38.666Z,11.71
2023-02-24T17:15:41.289Z,11.64
2023-02-24T17:17:44.015Z,11.53
2023-02-24T17:19:46.489Z,11.43
2023-02-24T17:21:49.144Z,11.35
2023-02-24T17:23:51.796Z,11.38
2023-02-24T17:25:58.959Z,11.36
2023-02-24T17:28:01.550Z,11.26
2023-02-24T17:30:04.814Z,11.27
2023-02-24T17:32:07.777Z,11.23
2023-02-24T17:34:10.565Z,11.24
2023-02-24T17:36:12.865Z,11.13
2023-02-24T17:38:17.221Z,11.12
2023-02-24T17:40:20.383Z,11.04
2023-02-24T17:42:22.559Z,10.99
2023-02-24T17:44:24.720Z,10.90
2023-02-24T17:46:27.243Z,10.94
2023-02-24T17:48:30.092Z,10.93
2023-02-24T17:50:32.144Z,10.85
2023-02-24T17:52:35.568Z,10.83
2023-02-24T17:54:39.885Z,10.84
2023-02-24T17:56:41.957Z,10.75
2023-02-24T17:58:43.872Z,10.73
2023-02-24T18:00:45.973Z,10.68
2023-02-24T18:02:48.043Z,10.75
2023-02-24T18:04:51.083Z,10.77
2023-02-24T18:06:55.116Z,10.72
2023-02-24T18:08:57.092Z,10.74
2023-02-24T18:10:59.592Z,10.66
2023-02-24T18:13:01.636Z,10.59
2023-02-24T18:15:09.385Z,10.62
2023-02-24T18:17:13.760Z,10.51
2023-02-24T18:19:18.688Z,10.56
2023-02-24T18:21:20.816Z,10.59
2023-02-24T18:23:23.084Z,10.56
2023-02-24T18:25:25.243Z,10.49
2023-02-24T18:27:27.726Z,10.54
2023-02-24T18:29:30.852Z,10.51
2023-02-24T18:31:33.682Z,10.47
2023-02-24T18:33:35.803Z,10.45
2023-02-24T18:35:38.889Z,10.45
2023-02-24T18:37:41.126Z,10.43
2023-02-24T18:39:43.055Z,10.38
2023-02-24T18:41:45.036Z,10.36
2023-02-24T18:43:54.948Z,10.33
2023-02-24T18:46:02.727Z,10.20
2023-02-24T18:48:05.236Z,10.30
2023-02-24T18:50:08.394Z,10.22
2023-02-24T18:52:11.648Z,10.21
2023-02-24T18:54:13.733Z,10.21
2023-02-24T18:56:18.317Z,10.08
2023-02-24T18:58:20.393Z,10.07
2023-02-24T19:00:22.754Z,10.10
2023-02-24T19:02:27.756Z,10.10
2023-02-24T19:04:29.946Z,10.12
2023-02-24T19:06:33.873Z,10.16
2023-02-24T19:08:38.272Z,10.02
2023-02-24T19:10:40.667Z,10.11
2023-02-24T19:12:43.112Z,10.07
2023-02-24T19:14:45.732Z,10.05
2023-02-24T19:16:47.813Z,10.01
2023-02-24T19:18:53.841Z,9.99
2023-02-24T19:20:55.985Z,9.92
2023-02-24T19:22:58.297Z,9.95
2023-02-24T19:25:00.472Z,9.89
2023-02-24T19:27:02.461Z,9.84
2023-02-24T19:29:04.542Z,9.88
2023-02-24T19:31:13.201Z,9.89
2023-02-24T19:33:15.469Z,9.85
2023-02-24T19:35:17.765Z,9.87
2023-02-24T19:37:19.875Z,9.83
2023-02-24T19:39:21.942Z,9.86
2023-02-24T19:41:24.467Z,9.78
2023-02-24T19:43:26.612Z,9.77
2023-02-24T19:45:30.800Z,9.77
2023-02-24T19:47:33.135Z,9.75
2023-02-24T19:49:35.372Z,9.72
2023-02-24T19:51:40.270Z,9.69
2023-02-24T19:53:42.456Z,9.68
2023-02-24T19:55:49.551Z,9.63
2023-02-24T19:57:54.936Z,9.69
2023-02-24T19:59:56.889Z,9.61
2023-02-24T20:01:58.824Z,9.57
2023-02-24T20:04:02.560Z,9.60
2023-02-24T20:06:05.766Z,9.57
2023-02-24T20:08:07.827Z,9.50
2023-02-24T20:10:11.118Z,9.40
2023-02-24T20:12:13.052Z,9.46
2023-02-24T20:14:18.528Z,9.37
2023-02-24T20:16:25.196Z,9.35
2023-02-24T20:18:30.594Z,9.43
2023-02-24T20:20:35.047Z,9.36
2023-02-24T20:22:36.970Z,9.40
2023-02-24T20:24:38.932Z,9.43
2023-02-24T20:26:42.460Z,9.46
2023-02-24T20:28:46.512Z,9.53
2023-02-24T20:30:50.369Z,9.54
2023-02-24T20:32:56.836Z,9.50
2023-02-24T20:34:58.985Z,9.46
2023-02-24T20:37:01.011Z,9.48
2023-02-24T20:39:06.643Z,9.59
2023-02-24T20:41:08.790Z,9.65
2023-02-24T20:43:10.955Z,9.67
2023-02-24T20:45:15.292Z,9.62
2023-02-24T20:47:19.158Z,9.53
2023-02-24T20:49:21.353Z,9.55
2023-02-24T20:51:23.835Z,9.53
2023-02-24T20:53:25.737Z,9.52
2023-02-24T20:55:27.652Z,9.50
2023-02-24T20:57:30.486Z,9.38
2023-02-24T20:59:32.594Z,9.42
2023-02-24T21:01:35.950Z,9.43
2023-02-24T21:03:37.850Z,9.20
2023-02-24T21:05:40.210Z,9.31
2023-02-24T21:07:42.136Z,9.32
2023-02-24T21:09:44.092Z,9.24
2023-02-24T21:11:46.093Z,9.23
2023-02-24T21:13:50.007Z,9.21
2023-02-24T21:15:53.798Z,9.24
2023-02-24T21:17:55.741Z,9.18
2023-02-24T21:19:57.650Z,9.19
2023-02-24T21:21:59.726Z,9.25
2023-02-24T21:24:03.617Z,9.27
2023-02-24T21:26:08.078Z,9.22
2023-02-24T21:28:12.447Z,9.20
2023-02-24T21:30:14.634Z,9.22
2023-02-24T21:32:16.610Z,9.25
2023-02-24T21:34:21.313Z,9.20
2023-02-24T21:36:26.325Z,9.10
2023-02-24T21:38:31.561Z,9.14
2023-02-24T21:40:34.175Z,9.16
2023-02-24T21:42:36.015Z,9.15
2023-02-24T21:44:39.195Z,9.13
2023-02-24T21:46:42.372Z,9.03
2023-02-24T21:48:44.449Z,8.92
2023-02-24T21:50:46.310Z,8.99
2023-02-24T21:52:49.205Z,8.99
2023-02-24T21:54:51.050Z,8.94
2023-02-24T21:56:52.952Z,8.96
2023-02-24T21:58:59.407Z,8.93
2023-02-24T22:01:01.797Z,8.94
2023-02-24T22:03:05.860Z,8.95
2023-02-24T22:05:08.347Z,9.00
2023-02-24T22:07:10.560Z,8.94
2023-02-24T22:09:17.166Z,8.88
2023-02-24T22:11:19.526Z,8.94
2023-02-24T22:13:22.038Z,8.94
2023-02-24T22:15:23.859Z,8.94
2023-02-24T22:17:25.686Z,8.94
2023-02-24T22:19:27.640Z,8.91
2023-02-24T22:21:30.521Z,8.89
2023-02-24T22:23:32.476Z,8.89
2023-02-24T22:25:35.821Z,8.89
2023-02-24T22:27:37.804Z,8.86
2023-02-24T22:29:39.809Z,8.90
2023-02-24T22:31:43.924Z,8.84
2023-02-24T22:33:46.806Z,8.84
2023-02-24T22:35:48.663Z,8.80
2023-02-24T22:37:50.548Z,8.81
2023-02-24T22:39:52.334Z,8.80
2023-02-24T22:41:54.172Z,8.70
2023-02-24T22:43:56.191Z,8.71
2023-02-24T22:45:59.614Z,8.75
2023-02-24T22:48:01.733Z,8.74
2023-02-24T22:50:03.830Z,8.62
2023-02-24T22:52:05.835Z,8.59
2023-02-24T22:54:07.668Z,8.63
2023-02-24T22:56:12.472Z,8.65
2023-02-24T22:58:15.111Z,8.65
2023-02-24T23:00:20.412Z,8.57
2023-02-24T23:02:22.286Z,8.59
2023-02-24T23:04:24.220Z,8.56
2023-02-24T23:06:26.502Z,8.52
2023-02-24T23:08:30.869Z,8.47
2023-02-24T23:10:34.126Z,8.44
2023-02-24T23:12:35.953Z,8.51
2023-02-24T23:14:38.550Z,8.50
2023-02-24T23:16:42.604Z,8.41
2023-02-24T23:18:48.248Z,8.39
2023-02-24T23:20:59.932Z,8.44
2023-02-24T23:23:01.950Z,8.49
2023-02-24T23:25:03.989Z,8.49
2023-02-24T23:27:06.325Z,8.50
2023-02-24T23:29:10.432Z,8.50
2023-02-24T23:31:18.311Z,8.50
2023-02-24T23:33:20.641Z,8.50
2023-02-24T23:35:22.461Z,8.49
2023-02-24T23:37:26.826Z,8.38
2023-02-24T23:39:30.987Z,8.41
2023-02-24T23:41:34.840Z,8.42
2023-02-24T23:43:40.587Z,8.42
2023-02-24T23:45:43.545Z,8.37
2023-02-24T23:47:47.039Z,8.36
2023-02-24T23:49:49.216Z,8.27
2023-02-24T23:51:51.714Z,8.34
2023-02-24T23:53:54.583Z,8.22
2023-02-24T23:55:58.480Z,8.16
2023-02-24T23:58:02.493Z,8.22
